createdAt,value
2022-07-31T00:00:16.489Z,2.47
2022-07-31T00:02:43.934Z,2.40
2022-07-31T00:05:11.699Z,2.60
2022-07-31T00:07:39.296Z,3.00
2022-07-31T00:10:06.968Z,2.63
2022-07-31T00:12:34.708Z,2.37
2022-07-31T00:15:06.921Z,2.00
2022-07-31T00:17:35.043Z,3.13
2022-07-31T00:20:02.835Z,2.30
2022-07-31T00:22:30.620Z,2.50
2022-07-31T00:24:58.093Z,2.20
2022-07-31T00:27:25.566Z,2.40
2022-07-31T00:29:53.048Z,2.30
2022-07-31T00:32:20.541Z,2.37
2022-07-31T00:34:48.030Z,2.43
2022-07-31T00:37:15.565Z,2.20
2022-07-31T00:39:43.341Z,2.90
2022-07-31T00:42:17.558Z,2.93
2022-07-31T00:44:47.852Z,3.17
2022-07-31T00:47:16.341Z,2.23
2022-07-31T00:49:44.021Z,2.20
2022-07-31T00:52:11.643Z,2.87
2022-07-31T00:54:39.574Z,2.90
2022-07-31T00:57:07.447Z,2.27
2022-07-31T00:59:35.089Z,2.90
2022-07-31T01:02:02.635Z,2.50
2022-07-31T01:04:31.378Z,2.77
2022-07-31T01:06:59.043Z,2.77
2022-07-31T01:09:26.569Z,3.00
2022-07-31T01:11:54.099Z,2.30
2022-07-31T01:14:25.043Z,2.63
2022-07-31T01:16:53.798Z,3.07
2022-07-31T01:19:21.244Z,2.73
2022-07-31T01:22:07.326Z,2.33
2022-07-31T01:25:13.227Z,2.80
2022-07-31T01:28:01.332Z,2.27
2022-07-31T01:30:33.752Z,2.80
2022-07-31T01:33:05.510Z,2.77
2022-07-31T01:35:39.330Z,2.47
2022-07-31T01:38:12.232Z,3.27
2022-07-31T01:40:44.082Z,2.33
2022-07-31T01:43:25.829Z,3.40
2022-07-31T01:45:56.939Z,2.67
2022-07-31T01:48:24.539Z,2.90
2022-07-31T01:50:53.350Z,3.00
2022-07-31T01:53:22.081Z,2.47
2022-07-31T01:56:02.926Z,3.17
2022-07-31T01:58:34.056Z,2.60
2022-07-31T02:01:03.092Z,4.13
2022-07-31T02:03:43.920Z,3.03
2022-07-31T02:06:16.521Z,2.73
2022-07-31T02:08:47.999Z,3.50
2022-07-31T02:11:16.370Z,2.80
2022-07-31T02:13:45.053Z,3.33
2022-07-31T02:16:13.829Z,2.47
2022-07-31T02:18:41.588Z,3.03
2022-07-31T02:21:09.855Z,2.90
2022-07-31T02:23:38.542Z,2.60
2022-07-31T02:26:06.345Z,2.70
2022-07-31T02:28:35.190Z,2.60
2022-07-31T02:31:03.498Z,2.50
2022-07-31T02:33:31.909Z,2.47
2022-07-31T02:36:00.794Z,2.50
2022-07-31T02:38:29.030Z,2.37
2022-07-31T02:41:00.463Z,2.43
2022-07-31T02:43:28.221Z,3.03
2022-07-31T02:45:56.467Z,3.03
2022-07-31T02:48:24.493Z,3.40
2022-07-31T02:50:52.079Z,3.03
2022-07-31T02:53:19.791Z,3.47
2022-07-31T02:55:47.368Z,2.90
2022-07-31T02:58:14.950Z,2.87
2022-07-31T03:00:42.507Z,3.07
2022-07-31T03:03:10.015Z,3.27
2022-07-31T03:05:37.469Z,2.83
2022-07-31T03:08:05.090Z,4.10
2022-07-31T03:10:32.583Z,2.93
2022-07-31T03:13:00.779Z,2.43
2022-07-31T03:15:28.295Z,2.73
2022-07-31T03:17:55.953Z,2.60
2022-07-31T03:20:24.109Z,2.83
2022-07-31T03:22:51.996Z,2.10
2022-07-31T03:25:21.253Z,2.47
2022-07-31T03:27:52.337Z,2.10
2022-07-31T03:30:24.672Z,2.43
2022-07-31T03:32:52.760Z,2.70
2022-07-31T03:35:20.325Z,2.80
2022-07-31T03:37:48.214Z,2.43
2022-07-31T03:40:15.925Z,2.33
2022-07-31T03:42:44.084Z,2.50
2022-07-31T03:45:13.013Z,2.83
2022-07-31T03:47:40.611Z,2.90
2022-07-31T03:50:08.517Z,2.80
2022-07-31T03:52:36.724Z,2.37
2022-07-31T03:55:04.672Z,2.40
2022-07-31T03:57:34.182Z,2.30
2022-07-31T04:00:03.055Z,3.17
2022-07-31T04:02:31.895Z,2.87
2022-07-31T04:05:00.183Z,2.17
2022-07-31T04:07:27.965Z,2.40
2022-07-31T04:09:55.519Z,2.57
2022-07-31T04:12:23.022Z,2.37
2022-07-31T04:14:50.542Z,2.70
2022-07-31T04:17:18.042Z,2.47
2022-07-31T04:19:45.506Z,2.90
2022-07-31T04:22:12.967Z,3.10
2022-07-31T04:24:40.476Z,2.00
2022-07-31T04:27:12.538Z,2.17
2022-07-31T04:29:40.446Z,2.33
2022-07-31T04:32:07.947Z,2.80
2022-07-31T04:34:35.517Z,2.70
2022-07-31T04:37:02.995Z,2.20
2022-07-31T04:39:30.489Z,2.43
2022-07-31T04:41:57.956Z,2.13
2022-07-31T04:44:25.481Z,2.60
2022-07-31T04:46:52.962Z,2.27
2022-07-31T04:49:20.611Z,2.50
2022-07-31T04:51:48.138Z,3.17
2022-07-31T04:54:15.707Z,2.70
2022-07-31T04:56:43.178Z,2.30
2022-07-31T04:59:12.055Z,2.50
2022-07-31T05:01:40.412Z,2.60
2022-07-31T05:04:08.561Z,2.37
2022-07-31T05:06:40.427Z,2.57
2022-07-31T05:09:11.457Z,2.90
2022-07-31T05:11:41.244Z,2.70
2022-07-31T05:14:09.614Z,2.77
2022-07-31T05:16:37.640Z,2.40
2022-07-31T05:19:05.651Z,2.37
2022-07-31T05:21:53.382Z,2.80
2022-07-31T05:24:32.714Z,2.33
2022-07-31T05:27:04.870Z,2.77
2022-07-31T05:29:33.013Z,2.37
2022-07-31T05:32:01.354Z,2.37
2022-07-31T05:34:30.445Z,2.80
2022-07-31T05:37:01.919Z,2.80
2022-07-31T05:39:30.020Z,2.10
2022-07-31T05:41:57.594Z,1.77
2022-07-31T05:44:25.231Z,2.03
2022-07-31T05:49:19.765Z,2.00
2022-07-31T05:51:47.213Z,2.10
2022-07-31T05:54:14.689Z,1.60
2022-07-31T05:56:41.955Z,2.13
2022-07-31T05:59:09.133Z,2.60
2022-07-31T06:01:36.579Z,1.63
2022-07-31T06:04:04.254Z,1.60
2022-07-31T06:06:31.767Z,1.73
2022-07-31T06:09:04.430Z,1.70
2022-07-31T06:11:32.470Z,1.50
2022-07-31T06:14:00.026Z,1.87
2022-07-31T06:16:27.561Z,1.63
2022-07-31T06:18:55.159Z,2.07
2022-07-31T06:23:49.004Z,1.50
2022-07-31T06:26:16.501Z,1.40
2022-07-31T06:28:48.897Z,1.67
2022-07-31T06:31:21.125Z,1.40
2022-07-31T06:33:49.630Z,1.40
2022-07-31T06:36:18.020Z,1.60
2022-07-31T06:38:45.991Z,1.30
2022-07-31T06:41:13.435Z,1.20
2022-07-31T06:43:40.607Z,1.50
2022-07-31T06:46:12.805Z,1.40
2022-07-31T06:48:40.070Z,1.50
2022-07-31T06:53:54.563Z,1.50
2022-07-31T06:56:21.767Z,1.27
2022-07-31T06:58:49.267Z,1.13
2022-07-31T07:01:16.497Z,1.67
2022-07-31T07:03:43.766Z,1.80
2022-07-31T07:06:10.994Z,1.60
2022-07-31T07:08:38.210Z,1.30
2022-07-31T07:11:08.243Z,1.30
2022-07-31T07:13:45.755Z,1.40
2022-07-31T07:16:14.946Z,1.43
2022-07-31T07:18:42.565Z,1.33
2022-07-31T07:21:10.068Z,1.33
2022-07-31T07:23:37.468Z,1.77
2022-07-31T07:26:05.595Z,1.53
2022-07-31T07:28:33.103Z,1.33
2022-07-31T07:31:00.401Z,1.50
2022-07-31T07:33:40.651Z,1.43
2022-07-31T07:36:23.096Z,1.80
2022-07-31T07:38:55.728Z,1.70
2022-07-31T07:41:24.863Z,1.50
2022-07-31T07:43:53.133Z,1.90
2022-07-31T07:46:22.618Z,1.10
2022-07-31T07:48:49.921Z,1.43
2022-07-31T07:51:17.722Z,1.60
2022-07-31T07:53:44.970Z,1.30
2022-07-31T07:56:12.261Z,1.67
2022-07-31T07:58:39.496Z,1.70
2022-07-31T08:01:06.770Z,1.30
2022-07-31T08:03:49.800Z,1.70
2022-07-31T08:06:22.097Z,1.30
2022-07-31T08:08:49.381Z,1.70
2022-07-31T08:11:17.092Z,1.03
2022-07-31T08:13:50.032Z,1.00
2022-07-31T08:16:19.590Z,1.40
2022-07-31T08:18:46.808Z,1.50
2022-07-31T08:21:14.126Z,1.10
2022-07-31T08:23:41.456Z,1.60
2022-07-31T08:26:08.775Z,1.40
2022-07-31T08:28:36.166Z,1.40
2022-07-31T08:31:03.924Z,1.20
2022-07-31T08:33:31.193Z,2.67
2022-07-31T08:35:58.584Z,1.33
2022-07-31T08:38:25.772Z,1.30
2022-07-31T08:40:53.136Z,1.00
2022-07-31T08:44:00.559Z,1.13
2022-07-31T08:46:07.835Z,1.40
2022-07-31T08:48:39.772Z,1.17
2022-07-31T08:51:10.537Z,1.13
2022-07-31T08:53:39.561Z,1.33
2022-07-31T08:56:08.765Z,1.47
2022-07-31T08:58:39.237Z,1.20
2022-07-31T09:01:07.974Z,1.57
2022-07-31T09:03:35.281Z,1.63
2022-07-31T09:06:03.104Z,0.93
2022-07-31T09:08:33.842Z,1.73
2022-07-31T09:11:10.483Z,1.10
2022-07-31T09:13:37.965Z,1.40
2022-07-31T09:16:05.844Z,1.10
2022-07-31T09:18:33.308Z,1.37
2022-07-31T09:21:03.141Z,0.70
2022-07-31T09:23:30.893Z,1.20
2022-07-31T09:26:00.356Z,1.20
2022-07-31T09:28:39.754Z,1.40
2022-07-31T09:31:09.781Z,0.87
2022-07-31T09:33:42.287Z,1.30
2022-07-31T09:36:13.499Z,1.00
2022-07-31T09:38:42.732Z,1.00
2022-07-31T09:41:56.716Z,1.23
2022-07-31T09:44:09.583Z,1.30
2022-07-31T09:46:47.494Z,1.33
2022-07-31T09:49:15.206Z,1.50
2022-07-31T09:51:45.441Z,1.10
2022-07-31T09:54:24.627Z,1.10
2022-07-31T09:56:52.084Z,1.30
2022-07-31T09:59:19.581Z,0.90
2022-07-31T10:01:48.403Z,1.10
2022-07-31T10:04:20.464Z,1.23
2022-07-31T10:06:49.225Z,1.60
2022-07-31T10:09:19.375Z,1.13
2022-07-31T10:11:48.218Z,0.93
2022-07-31T10:14:30.926Z,0.97
2022-07-31T10:17:00.947Z,0.87
2022-07-31T10:19:34.696Z,1.37
2022-07-31T10:22:04.351Z,1.00
2022-07-31T10:24:33.374Z,1.40
2022-07-31T10:27:08.030Z,1.23
2022-07-31T10:29:38.077Z,1.33
2022-07-31T10:32:06.794Z,1.20
2022-07-31T10:34:35.173Z,1.00
2022-07-31T10:37:11.192Z,1.20
2022-07-31T10:40:06.696Z,1.23
2022-07-31T10:42:45.858Z,0.90
2022-07-31T10:45:14.459Z,1.23
2022-07-31T10:47:53.869Z,1.70
2022-07-31T10:50:26.386Z,1.40
2022-07-31T10:52:57.409Z,1.73
2022-07-31T10:55:27.796Z,1.20
2022-07-31T10:57:56.843Z,1.63
2022-07-31T11:00:28.389Z,1.10
2022-07-31T11:02:57.711Z,1.33
2022-07-31T11:05:24.979Z,1.60
2022-07-31T11:08:06.398Z,1.10
2022-07-31T11:10:34.497Z,1.23
2022-07-31T11:13:09.399Z,1.10
2022-07-31T11:15:36.841Z,1.23
2022-07-31T11:18:26.335Z,1.40
2022-07-31T11:21:17.380Z,1.40
2022-07-31T11:23:56.372Z,1.20
2022-07-31T11:26:33.195Z,1.13
2022-07-31T11:30:00.679Z,1.70
2022-07-31T11:32:13.909Z,1.37
2022-07-31T11:34:46.081Z,1.53
2022-07-31T11:37:20.579Z,1.40
2022-07-31T11:39:51.322Z,1.63
2022-07-31T11:42:19.564Z,4.33
2022-07-31T11:44:52.292Z,9.20
2022-07-31T11:48:09.567Z,1.93
2022-07-31T11:50:07.549Z,3.93
2022-07-31T11:52:37.238Z,3.03
2022-07-31T11:55:09.395Z,3.17
2022-07-31T11:57:51.125Z,3.87
2022-07-31T12:00:26.082Z,3.17
2022-07-31T12:02:57.803Z,3.27
2022-07-31T12:05:37.624Z,1.73
2022-07-31T12:08:08.080Z,2.17
2022-07-31T12:10:35.806Z,1.50
2022-07-31T12:13:03.540Z,2.30
2022-07-31T12:15:31.062Z,1.70
2022-07-31T12:18:02.515Z,1.77
2022-07-31T12:20:35.767Z,2.00
2022-07-31T12:23:04.793Z,1.87
2022-07-31T12:25:44.461Z,1.60
2022-07-31T12:28:13.764Z,1.70
2022-07-31T12:30:41.708Z,1.83
2022-07-31T12:33:10.101Z,1.80
2022-07-31T12:35:56.228Z,1.50
2022-07-31T12:38:45.761Z,1.93
2022-07-31T12:41:15.902Z,1.50
2022-07-31T12:43:51.725Z,1.60
2022-07-31T12:46:21.142Z,1.80
2022-07-31T12:48:48.820Z,2.10
2022-07-31T12:51:16.360Z,1.60
2022-07-31T12:53:46.657Z,1.50
2022-07-31T12:56:14.155Z,2.23
2022-07-31T12:58:41.615Z,1.60
2022-07-31T13:01:09.144Z,1.67
2022-07-31T13:03:45.494Z,2.20
2022-07-31T13:06:14.347Z,1.97
2022-07-31T13:08:41.857Z,1.60
2022-07-31T13:11:09.434Z,1.80
2022-07-31T13:13:36.916Z,2.37
2022-07-31T13:16:04.539Z,1.87
2022-07-31T13:18:32.004Z,1.87
2022-07-31T13:20:59.511Z,1.97
2022-07-31T13:23:26.972Z,1.90
2022-07-31T13:25:54.484Z,1.80
2022-07-31T13:28:21.974Z,2.63
2022-07-31T13:30:54.619Z,1.90
2022-07-31T13:33:22.570Z,1.90
2022-07-31T13:35:50.053Z,1.90
2022-07-31T13:38:17.572Z,1.70
2022-07-31T13:40:45.052Z,1.60
2022-07-31T13:43:12.961Z,1.67
2022-07-31T13:45:40.530Z,2.17
2022-07-31T13:48:10.175Z,1.77
2022-07-31T13:50:40.960Z,1.90
2022-07-31T13:53:08.980Z,1.60
2022-07-31T13:55:36.582Z,1.53
2022-07-31T13:58:04.414Z,1.87
2022-07-31T14:00:31.996Z,1.70
2022-07-31T14:02:59.530Z,1.97
2022-07-31T14:05:27.664Z,1.90
2022-07-31T14:07:55.965Z,1.63
2022-07-31T14:10:23.935Z,1.80
2022-07-31T14:12:51.395Z,1.60
2022-07-31T14:15:18.895Z,1.47
2022-07-31T14:17:46.418Z,1.80
2022-07-31T14:20:14.194Z,1.60
2022-07-31T14:22:42.157Z,1.23
2022-07-31T14:25:10.249Z,1.80
2022-07-31T14:27:37.730Z,1.70
2022-07-31T14:30:08.978Z,1.50
2022-07-31T14:32:37.696Z,1.53
2022-07-31T14:35:08.285Z,1.80
2022-07-31T14:37:36.394Z,1.27
2022-07-31T14:40:06.970Z,1.70
2022-07-31T14:42:34.519Z,1.60
2022-07-31T14:45:02.721Z,1.90
2022-07-31T14:47:33.927Z,1.80
2022-07-31T14:50:09.331Z,2.00
2022-07-31T14:52:37.650Z,2.37
2022-07-31T14:55:05.362Z,1.60
2022-07-31T14:57:32.951Z,2.00
2022-07-31T15:00:00.419Z,1.83
2022-07-31T15:02:28.055Z,1.63
2022-07-31T15:04:55.624Z,1.60
2022-07-31T15:07:45.984Z,2.10
2022-07-31T15:10:11.804Z,2.00
2022-07-31T15:12:39.382Z,1.67
2022-07-31T15:15:07.582Z,2.10
2022-07-31T15:17:35.169Z,1.97
2022-07-31T15:20:02.723Z,1.47
2022-07-31T15:22:30.321Z,1.80
2022-07-31T15:24:57.837Z,1.60
2022-07-31T15:27:25.551Z,1.73
2022-07-31T15:30:00.171Z,2.20
2022-07-31T15:32:36.158Z,1.80
2022-07-31T15:35:04.481Z,2.20
2022-07-31T15:37:34.178Z,2.10
2022-07-31T15:40:03.684Z,2.10
2022-07-31T15:42:32.487Z,1.53
2022-07-31T15:44:59.985Z,1.60
2022-07-31T15:47:27.582Z,1.70
2022-07-31T15:49:55.166Z,1.87
2022-07-31T15:52:22.759Z,2.40
2022-07-31T15:54:51.781Z,1.70
2022-07-31T15:57:20.298Z,1.90
2022-07-31T15:59:47.779Z,2.10
2022-07-31T16:02:15.298Z,1.80
2022-07-31T16:04:52.970Z,2.07
2022-07-31T16:08:31.638Z,2.10
2022-07-31T16:10:16.607Z,1.63
2022-07-31T16:12:48.475Z,1.50
2022-07-31T16:15:17.143Z,1.50
2022-07-31T16:17:45.114Z,1.70
2022-07-31T16:20:25.268Z,1.77
2022-07-31T16:22:58.605Z,1.50
2022-07-31T16:25:26.683Z,1.80
2022-07-31T16:27:54.189Z,1.50
2022-07-31T16:30:21.997Z,1.53
2022-07-31T16:32:49.992Z,1.20
2022-07-31T16:35:17.531Z,1.60
2022-07-31T16:37:52.287Z,1.20
2022-07-31T16:40:28.929Z,2.47
2022-07-31T16:43:47.785Z,1.20
2022-07-31T16:45:54.885Z,1.03
2022-07-31T16:48:22.526Z,1.53
2022-07-31T16:50:53.481Z,1.27
2022-07-31T16:54:13.245Z,1.27
2022-07-31T16:56:15.171Z,1.00
2022-07-31T16:58:42.740Z,1.43
2022-07-31T17:01:53.826Z,1.60
2022-07-31T17:04:01.258Z,1.07
2022-07-31T17:06:37.183Z,1.40
2022-07-31T17:09:17.283Z,1.07
2022-07-31T17:11:50.765Z,1.30
2022-07-31T17:14:19.796Z,1.50
2022-07-31T17:16:48.995Z,1.10
2022-07-31T17:19:41.913Z,1.27
2022-07-31T17:22:17.840Z,1.17
2022-07-31T17:24:47.882Z,1.30
2022-07-31T17:27:15.088Z,1.30
2022-07-31T17:29:42.378Z,0.93
2022-07-31T17:32:11.289Z,1.20
2022-07-31T17:34:39.840Z,1.23
2022-07-31T17:37:07.658Z,1.20
2022-07-31T17:39:35.667Z,1.10
2022-07-31T17:42:03.131Z,0.90
2022-07-31T17:44:30.930Z,1.10
2022-07-31T17:46:58.404Z,0.90
2022-07-31T17:49:26.896Z,1.77
2022-07-31T17:51:57.756Z,1.10
2022-07-31T17:54:28.536Z,0.93
2022-07-31T17:56:56.100Z,0.90
2022-07-31T17:59:23.702Z,1.03
2022-07-31T18:01:52.235Z,1.10
2022-07-31T18:04:20.289Z,1.60
2022-07-31T18:06:51.355Z,1.20
2022-07-31T18:09:21.725Z,1.50
2022-07-31T18:11:49.657Z,1.70
2022-07-31T18:14:18.226Z,1.80
2022-07-31T18:16:46.445Z,1.90
2022-07-31T18:19:14.224Z,1.57
2022-07-31T18:21:41.801Z,1.80
2022-07-31T18:24:09.477Z,2.00
2022-07-31T18:26:37.038Z,2.27
2022-07-31T18:29:05.061Z,4.10
2022-07-31T18:31:35.899Z,4.97
2022-07-31T18:34:05.024Z,6.60
2022-07-31T18:36:33.345Z,3.60
2022-07-31T18:39:01.240Z,5.10
2022-07-31T18:41:28.593Z,5.03
2022-07-31T18:43:56.693Z,4.60
2022-07-31T18:46:23.947Z,5.03
2022-07-31T18:48:55.414Z,5.10
2022-07-31T18:51:23.805Z,6.10
2022-07-31T18:53:51.436Z,6.47
2022-07-31T18:56:18.796Z,5.97
2022-07-31T18:58:46.010Z,6.10
2022-07-31T19:01:16.058Z,4.93
2022-07-31T19:03:43.308Z,7.10
2022-07-31T19:06:10.611Z,7.43
2022-07-31T19:08:37.930Z,7.23
2022-07-31T19:11:05.305Z,6.80
2022-07-31T19:13:32.625Z,6.30
2022-07-31T19:16:00.223Z,7.20
2022-07-31T19:18:28.654Z,7.47
2022-07-31T19:21:21.236Z,7.20
2022-07-31T19:23:44.650Z,7.97
2022-07-31T19:26:12.120Z,8.47
2022-07-31T19:28:40.069Z,9.23
2022-07-31T19:31:07.679Z,9.87
2022-07-31T19:33:36.118Z,9.23
2022-07-31T19:36:03.509Z,9.50
2022-07-31T19:38:32.432Z,8.87
2022-07-31T19:41:00.274Z,7.70
2022-07-31T19:43:28.134Z,9.87
2022-07-31T19:46:02.491Z,9.67
2022-07-31T19:48:45.915Z,10.30
2022-07-31T19:51:14.167Z,8.83
2022-07-31T19:53:41.907Z,9.63
2022-07-31T19:56:10.222Z,9.67
2022-07-31T19:58:38.509Z,7.50
2022-07-31T20:01:06.514Z,8.90
2022-07-31T20:03:34.452Z,6.63
2022-07-31T20:06:02.979Z,6.43
2022-07-31T20:08:33.338Z,5.57
2022-07-31T20:11:02.201Z,5.60
2022-07-31T20:13:30.039Z,5.80
2022-07-31T20:15:58.172Z,5.37
2022-07-31T20:18:27.149Z,6.00
2022-07-31T20:20:57.112Z,6.17
2022-07-31T20:23:25.436Z,6.17
2022-07-31T20:25:53.067Z,4.80
2022-07-31T20:28:20.631Z,5.03
2022-07-31T20:30:48.290Z,5.53
2022-07-31T20:33:15.862Z,5.20
2022-07-31T20:35:47.652Z,5.60
2022-07-31T20:38:16.240Z,6.10
2022-07-31T20:40:53.071Z,5.23
2022-07-31T20:43:26.367Z,5.80
2022-07-31T20:45:54.650Z,5.20
2022-07-31T20:48:22.556Z,5.40
2022-07-31T20:50:50.502Z,5.20
2022-07-31T20:53:18.126Z,5.60
2022-07-31T20:55:45.654Z,4.47
2022-07-31T20:58:13.176Z,5.23
2022-07-31T21:00:40.781Z,5.00
2022-07-31T21:03:08.398Z,6.00
2022-07-31T21:05:35.889Z,5.97
2022-07-31T21:08:03.669Z,5.53
2022-07-31T21:10:31.326Z,5.10
2022-07-31T21:12:59.212Z,5.80
2022-07-31T21:15:41.788Z,5.53
2022-07-31T21:18:15.986Z,5.70
2022-07-31T21:20:52.177Z,5.37
2022-07-31T21:23:29.793Z,5.07
2022-07-31T21:25:57.892Z,5.10
2022-07-31T21:28:26.646Z,5.23
2022-07-31T21:30:54.544Z,4.70
2022-07-31T21:33:26.136Z,5.17
2022-07-31T21:35:54.681Z,5.33
2022-07-31T21:38:22.247Z,6.23
2022-07-31T21:40:49.906Z,4.93
2022-07-31T21:43:18.546Z,5.37
2022-07-31T21:45:55.362Z,4.43
2022-07-31T21:48:26.436Z,4.80
2022-07-31T21:50:54.319Z,4.77
2022-07-31T21:53:22.375Z,5.13
2022-07-31T21:55:49.944Z,4.63
2022-07-31T21:58:17.907Z,5.03
2022-07-31T22:00:45.567Z,4.70
2022-07-31T22:03:13.224Z,3.97
2022-07-31T22:05:40.733Z,4.23
2022-07-31T22:08:08.206Z,4.33
2022-07-31T22:10:35.388Z,3.77
2022-07-31T22:13:02.989Z,4.00
2022-07-31T22:15:55.335Z,3.77
2022-07-31T22:18:17.984Z,3.80
2022-07-31T22:20:45.712Z,4.17
2022-07-31T22:23:13.430Z,4.40
2022-07-31T22:25:41.182Z,3.73
2022-07-31T22:28:08.856Z,4.43
2022-07-31T22:30:36.390Z,4.33
2022-07-31T22:33:03.953Z,4.90
2022-07-31T22:35:33.370Z,4.70
2022-07-31T22:38:00.866Z,5.87
2022-07-31T22:40:28.375Z,5.20
2022-07-31T22:42:57.628Z,5.77
2022-07-31T22:45:26.039Z,5.23
2022-07-31T22:47:55.598Z,4.87
2022-07-31T22:50:23.088Z,4.80
2022-07-31T22:52:50.867Z,5.10
2022-07-31T22:55:18.389Z,4.40
2022-07-31T22:57:46.031Z,4.87
2022-07-31T23:00:14.551Z,4.80
2022-07-31T23:02:43.057Z,3.30
2022-07-31T23:05:10.859Z,4.10
2022-07-31T23:07:38.476Z,3.80
2022-07-31T23:10:09.945Z,3.40
2022-07-31T23:12:37.510Z,3.77
2022-07-31T23:15:05.524Z,3.90
2022-07-31T23:17:33.004Z,3.70
2022-07-31T23:20:00.487Z,3.83
2022-07-31T23:22:33.879Z,3.53
2022-07-31T23:25:02.581Z,4.10
2022-07-31T23:27:30.154Z,3.43
2022-07-31T23:29:57.648Z,3.20
2022-07-31T23:32:25.467Z,4.10
2022-07-31T23:34:53.132Z,4.07
2022-07-31T23:37:20.671Z,4.17
2022-07-31T23:39:48.165Z,3.87
2022-07-31T23:42:15.646Z,4.50
2022-07-31T23:44:46.162Z,4.13
2022-07-31T23:47:16.012Z,3.43
2022-07-31T23:49:43.724Z,3.63
2022-07-31T23:52:11.322Z,3.17
2022-07-31T23:54:38.897Z,3.90
2022-07-31T23:57:06.376Z,4.13
2022-07-31T23:59:34.121Z,3.43
